Beckett Point, Washington
Current Conditions -  °F | °C
As of 11:56 PM on Friday 28 Nov 2014 (Local Time) from KNUW Reporting Station
Overcast Overcast  
Wind Chill: 33°   Ceiling: 4200
Heat Index: 41°   Visibility: 10mi
Dew Point: 27°   Wind: 16mph
Humidity: 57%   Direction: 320°NW
Pressure: 29.53"   Gusts: NA
Location:  48.026°N, 122.859°W
Report Text: KNUW 290756Z 32014KT 10SM SCT020 BKN042 OVC070 05/M03 A2953 RMK AO2 PK WND 31031/0737 WSHFT 0725 RAE19 SLP003 P0000 T00501028 401390044 $
Loading
Personal Weather Stations






























Interactive Weather Map New forecast layout! Learn more

10-Day Weather Forecast

Advertisements
Track Severe Weather on mobile